Portada
METAR-TAF:

METAR-TAF

Aeroports :

Shahrekord, Iran

latitud: 32-20N, longitud: 050-51E, altitud: 2078 m

Observació

L'informe es va fer fa 8 minuts, a les 23:00 UTC
Vent 8 kt del Nord-Oest
Temperatura 17°C
Humitat 19%
Pressió 1025 hPa
Visibilitat 10 km o més
sense núvols per sota de 1500 mi sense presència de cumulonimbus.

METAR: OIFS 192300Z 32008KT CAVOK 17/M07 Q1025

Hora: 03:38 (23:08 UTC)


TAF: manca

Observacions i pronòstics meteorològics de més de 4000 aeroports (METAR i TAF).

Les estacions disponibles són els punts grocs i vermells al mapa.

Posi el ratolí al punt desitjat per veure el nom de l'estació.

Feu clic per veure les observacions i els pronòstics meteorològics.

Per canviar el mapa: feu clic els botons verds amb una creu de color negre per apropar; al botó verd amb un guió per allunyar la imatge; o en les fletxes verdes per a mapes adjacents.


METAR-TAF: